Terminal Aerodrome Forecast
Issued by NWS

Home | Current Version | Previous Version | Text Only | Print | Product List | Glossary On
Versions: 1 2 3 4 5 6 7 8 9 10 11 12 13 14 15 16
000
FTUS44 KOUN 241135
TAFPNC

TAF
KPNC 241120Z 2412/2512 22012KT P6SM SCT040
     FM241400 33020G30KT P6SM SCT025 OVC040
      TEMPO 2414/2416 -RA
     FM241800 34015G25KT P6SM SCT050
     FM250000 33011KT P6SM SKC=

USA.gov is the U.S. government's official web portal to all federal, state and local government web resources and services.